European Causeway — C6RG7 — position and weather

sailwx.info

Track history (hours):
 
Tides and Currents Weather Stations Pressure Air Temp Water Temp Dewpoint Dewpoint Depression Visibility Wind Speed Wind Dir Waves Ship Positions

European Causeway

Operator: P & O Irish Sea

Last reported at 2019-Feb-23 16:31 UTC. Time now 2019-Feb-23 16:42 UTC.
Position N 54°51' W 005°48'.

Length 145 m; draft 5.5 m.

Type: Passenger vessel. MMSI: 311027000.

Date/timePositionNaut miles runAvg speedWind from/ knotsBaromVisibWave heightAir tempDewpointWater temp
2019-Feb-23 16:31N 54°51' W 005°48'0 0.0
2019-Feb-23 16:01N 54°51' W 005°48'0 0.0
2019-Feb-23 15:30N 54°51' W 005°48'5 9.9
2019-Feb-23 15:00N 54°53' W 005°40'917.3
2019-Feb-23 14:31N 54°57' W 005°27'816.5
2019-Feb-23 14:00N 55°01' W 005°14'714.7
2019-Feb-23 13:31N 54°58' W 005°02'1 1.8
2019-Feb-23 13:00N 54°58' W 005°01'0 0.0
2019-Feb-23 12:31N 54°58' W 005°01'5 9.3
2019-Feb-23 11:56N 55°02' W 005°08'717.2
2019-Feb-23 11:30N 54°59' W 005°19'917.8
2019-Feb-23 11:00N 54°55' W 005°33'917.5
2019-Feb-23 10:29N 54°51' W 005°48'0 0.8
2019-Feb-23 10:00N 54°51' W 005°48'0 0.0
2019-Feb-23 09:31N 54°51' W 005°48'510.0
2019-Feb-23 09:01N 54°54' W 005°41'917.2
2019-Feb-23 08:30N 54°57' W 005°27'917.8
2019-Feb-23 08:00N 55°01' W 005°13'714.1
2019-Feb-23 07:31N 54°58' W 005°02'1 1.2
2019-Feb-23 06:56N 54°58' W 005°01'0 0.0
2019-Feb-23 06:31N 54°58' W 005°01'0 0.0
2019-Feb-23 06:01N 54°58' W 005°01'610.5
2019-Feb-23 05:29N 55°01' W 005°08'918.3
2019-Feb-23 05:00N 54°58' W 005°22'917.9
2019-Feb-23 04:30N 54°54' W 005°36'815.1
2019-Feb-23 04:00N 54°51' W 005°48'0 0.1
2019-Feb-23 03:29N 54°51' W 005°48'0 0.0
2019-Feb-23 02:59N 54°51' W 005°48'0 0.0
2019-Feb-23 02:29N 54°51' W 005°48'0 0.0
2019-Feb-23 02:00N 54°51' W 005°48'3 6.9
2019-Feb-23 01:31N 54°53' W 005°43'917.1
2019-Feb-23 01:01N 54°57' W 005°30'917.5
2019-Feb-23 00:30N 55°00' W 005°16'714.6
2019-Feb-23 00:00N 54°59' W 005°03'2 3.7
2019-Feb-22 23:28N 54°58' W 005°01'0 0.0
2019-Feb-22 23:00N 54°58' W 005°01'0 0.0
2019-Feb-22 22:30N 54°58' W 005°01'0 0.1
2019-Feb-22 22:00N 54°58' W 005°01'510.2
2019-Feb-22 21:28N 55°01' W 005°08'817.1
2019-Feb-22 21:00N 54°58' W 005°20'917.9
2019-Feb-22 20:30N 54°54' W 005°35'816.6
2019-Feb-22 20:00N 54°51' W 005°48'0 0.3
2019-Feb-22 19:29N 54°51' W 005°48'0 0.0
2019-Feb-22 19:00N 54°51' W 005°48'0 0.0
2019-Feb-22 18:30N 54°51' W 005°48'3 6.8
2019-Feb-22 18:00N 54°53' W 005°43'1121.7
2019-Feb-22 17:31N 54°58' W 005°26'918.3
2019-Feb-22 17:01N 55°01' W 005°12'714.4
2019-Feb-22 16:30N 54°58' W 005°01'0 0.0
2019-Feb-22 16:00N 54°58' W 005°01'0 0.0
2019-Feb-22 15:31N 54°58' W 005°01'510.9
2019-Feb-22 15:00N 55°02' W 005°08'918.9
2019-Feb-22 14:30N 54°58' W 005°23'918.1
2019-Feb-22 14:01N 54°54' W 005°37'713.7
2019-Feb-22 13:31N 54°51' W 005°48'0 0.1
2019-Feb-22 13:00N 54°51' W 005°48'0 0.0
2019-Feb-22 12:30N 54°51' W 005°48'510.7
2019-Feb-22 12:00N 54°54' W 005°40'917.2
2019-Feb-22 11:30N 54°58' W 005°27'917.5
2019-Feb-22 11:00N 55°01' W 005°13'713.3
2019-Feb-22 10:30N 54°58' W 005°02'1 1.5
2019-Feb-22 10:00N 54°58' W 005°01'0 0.0
2019-Feb-22 09:30N 54°58' W 005°01'5 9.6
2019-Feb-22 08:56N 55°02' W 005°08'716.7
2019-Feb-22 08:30N 54°58' W 005°19'918.2
2019-Feb-22 08:00N 54°55' W 005°34'917.4
2019-Feb-22 07:29N 54°51' W 005°48'0 0.4
2019-Feb-22 06:58N 54°51' W 005°48'0 0.0
2019-Feb-22 06:25N 54°51' W 005°48'0 0.0
2019-Feb-22 06:00N 54°51' W 005°48'511.0
2019-Feb-22 05:30N 54°54' W 005°40'816.7
2019-Feb-22 05:00N 54°58' W 005°27'816.8
2019-Feb-22 04:30N 55°01' W 005°13'714.7
2019-Feb-22 04:00N 54°58' W 005°02'1 1.1
2019-Feb-22 03:30N 54°58' W 005°01'0 0.0
2019-Feb-22 02:54N 54°58' W 005°01'0 0.0
2019-Feb-22 02:30N 54°58' W 005°01'0 0.0
2019-Feb-22 02:00N 54°58' W 005°01'610.5
2019-Feb-22 01:27N 55°02' W 005°08'818.4
2019-Feb-22 01:00N 54°57' W 005°21'917.3
2019-Feb-22 00:31N 54°54' W 005°35'813.9
2019-Feb-21 23:55N 54°51' W 005°48'0 0.0
2019-Feb-21 23:19N 54°51' W 005°48'0 0.0
2019-Feb-21 22:58N 54°51' W 005°48'0 0.0
2019-Feb-21 22:25N 54°51' W 005°48'0 0.0
2019-Feb-21 22:00N 54°51' W 005°48'4 7.6
2019-Feb-21 21:30N 54°53' W 005°42'918.0
2019-Feb-21 21:01N 54°57' W 005°29'918.4
2019-Feb-21 20:30N 55°01' W 005°14'714.0
2019-Feb-21 20:00N 54°59' W 005°03'1 2.4
2019-Feb-21 19:24N 54°58' W 005°01'0 0.0
2019-Feb-21 19:00N 54°58' W 005°01'0 0.1
2019-Feb-21 18:30N 54°58' W 005°01'510.8
2019-Feb-21 18:00N 55°01' W 005°08'917.8
2019-Feb-21 17:31N 54°58' W 005°22'917.9
2019-Feb-21 17:01N 54°54' W 005°36'815.1
2019-Feb-21 16:31N 54°51' W 005°48'0 0.2
2019-Feb-21 15:52N 54°51' W 005°48'0 0.0
2019-Feb-21 15:28N 54°51' W 005°48'4 8.2
2019-Feb-21 15:00N 54°53' W 005°42'917.8
2019-Feb-21 14:30N 54°57' W 005°29'816.9
2019-Feb-21 14:00N 55°01' W 005°16'714.0
2019-Feb-21 13:29N 54°59' W 005°03'2 4.1
2019-Feb-21 13:01N 54°58' W 005°01'0 0.0
2019-Feb-21 12:30N 54°58' W 005°01'6 9.9
2019-Feb-21 11:55N 55°01' W 005°08'718.1
2019-Feb-21 11:30N 54°58' W 005°20'918.0
2019-Feb-21 11:00N 54°55' W 005°35'816.9
2019-Feb-21 10:30N 54°51' W 005°48'0 0.4
2019-Feb-21 10:00N 54°51' W 005°48'0 0.1
2019-Feb-21 09:31N 54°51' W 005°48'5 9.3
2019-Feb-21 09:00N 54°54' W 005°41'918.1
2019-Feb-21 08:31N 54°57' W 005°27'918.7
2019-Feb-21 08:00N 55°01' W 005°12'714.3
2019-Feb-21 07:30N 54°58' W 005°01'0 0.7
2019-Feb-21 07:00N 54°58' W 005°01'0 0.0
2019-Feb-21 06:30N 54°58' W 005°01'0 0.4
2019-Feb-21 06:00N 54°58' W 005°01'511.1
2019-Feb-21 05:31N 55°01' W 005°08'918.1
2019-Feb-21 05:00N 54°58' W 005°23'918.3
2019-Feb-21 04:31N 54°54' W 005°37'713.7
2019-Feb-21 04:00N 54°51' W 005°48'0 0.1
2019-Feb-21 03:30N 54°51' W 005°48'0 0.0
2019-Feb-21 03:00N 54°51' W 005°48'0 0.0
2019-Feb-21 02:30N 54°51' W 005°48'0 0.0
2019-Feb-21 02:00N 54°51' W 005°48'4 7.8
2019-Feb-21 01:30N 54°53' W 005°42'918.0
2019-Feb-21 01:00N 54°57' W 005°28'817.0
2019-Feb-21 00:30N 55°01' W 005°15'714.2
2019-Feb-21 00:01N 54°59' W 005°03'2 3.4
2019-Feb-20 23:30N 54°58' W 005°01'0 0.0
2019-Feb-20 23:00N 54°58' W 005°01'0 0.0
2019-Feb-20 22:30N 54°58' W 005°01'0 0.1
2019-Feb-20 22:01N 54°58' W 005°01'611.6
2019-Feb-20 21:30N 55°02' W 005°09'917.4
2019-Feb-20 21:01N 54°58' W 005°22'919.0
2019-Feb-20 20:30N 54°54' W 005°37'713.3
2019-Feb-20 20:00N 54°51' W 005°48'0 0.0
2019-Feb-20 19:29N 54°51' W 005°48'0 0.0
2019-Feb-20 18:59N 54°51' W 005°48'0 0.0
2019-Feb-20 18:31N 54°51' W 005°48'611.6
2019-Feb-20 17:59N 54°54' W 005°39'817.9
2019-Feb-20 17:30N 54°58' W 005°26'917.7
2019-Feb-20 17:00N 55°01' W 005°11'713.9
2019-Feb-20 16:31N 54°58' W 005°01'0 0.0
2019-Feb-20 15:58N 54°58' W 005°01'0 0.0
2019-Feb-20 15:30N 54°58' W 005°01'610.6
2019-Feb-20 14:57N 55°02' W 005°09'919.9
2019-Feb-20 14:31N 54°57' W 005°22'1019.2
2019-Feb-20 14:00N 54°54' W 005°38'713.1
2019-Feb-20 13:30N 54°51' W 005°48'0 0.0
2019-Feb-20 13:00N 54°51' W 005°48'0 0.0
2019-Feb-20 12:30N 54°51' W 005°48'510.6
2019-Feb-20 12:01N 54°54' W 005°40'917.6
2019-Feb-20 11:30N 54°58' W 005°26'917.0
2019-Feb-20 11:00N 55°01' W 005°13'713.5
2019-Feb-20 10:30N 54°58' W 005°02'1 1.3
2019-Feb-20 09:46N 54°58' W 005°01'0 0.1
2019-Feb-20 09:26N 54°58' W 005°01'512.3
2019-Feb-20 09:00N 55°02' W 005°07'816.8
2019-Feb-20 08:31N 54°58' W 005°20'918.5
2019-Feb-20 08:01N 54°55' W 005°35'814.9
2019-Feb-20 07:28N 54°51' W 005°48'0 0.1
2019-Feb-20 06:55N 54°51' W 005°48'0 0.0
2019-Feb-20 06:28N 54°51' W 005°48'0 0.0
2019-Feb-20 06:00N 54°51' W 005°48'4 8.3
2019-Feb-20 05:31N 54°53' W 005°42'1019.6
2019-Feb-20 05:01N 54°58' W 005°27'1019.7
2019-Feb-20 04:31N 55°02' W 005°11'713.8
2019-Feb-20 04:00N 54°58' W 005°01'0 0.0
2019-Feb-20 03:01N 54°58' W 005°01'0 0.0
2019-Feb-20 02:30N 54°58' W 005°01'0 0.2
2019-Feb-20 02:01N 54°58' W 005°01'712.9
2019-Feb-20 01:30N 55°02' W 005°10'1019.6
2019-Feb-20 01:00N 54°58' W 005°24'1019.2
2019-Feb-20 00:31N 54°55' W 005°40'611.9
2019-Feb-20 00:00N 54°51' W 005°48'0 0.0
2019-Feb-19 23:30N 54°51' W 005°48'0 0.0
2019-Feb-19 23:01N 54°51' W 005°48'0 0.0
2019-Feb-19 22:31N 54°51' W 005°48'0 0.0
2019-Feb-19 22:00N 54°51' W 005°48'511.0
2019-Feb-19 21:31N 54°54' W 005°40'917.4
2019-Feb-19 21:01N 54°58' W 005°26'917.7
2019-Feb-19 20:30N 55°01' W 005°12'713.9
2019-Feb-19 20:01N 54°58' W 005°01'0 0.6
2019-Feb-19 19:31N 54°58' W 005°01'0 0.0
2019-Feb-19 19:01N 54°58' W 005°01'0 0.2
2019-Feb-19 18:30N 54°58' W 005°01'613.0
2019-Feb-19 18:00N 55°01' W 005°11'1020.1
2019-Feb-19 17:30N 54°57' W 005°26'1121.2
2019-Feb-19 17:00N 54°53' W 005°43'3 6.2
2019-Feb-19 16:31N 54°51' W 005°48'0 0.1
2019-Feb-19 16:00N 54°51' W 005°48'0 0.0
2019-Feb-19 15:28N 54°51' W 005°48'3 7.0
2019-Feb-19 15:00N 54°53' W 005°44'917.8
2019-Feb-19 14:31N 54°57' W 005°30'917.1
2019-Feb-19 14:01N 55°00' W 005°16'714.1
2019-Feb-19 13:30N 54°60' W 005°04'2 4.8
2019-Feb-19 13:00N 54°58' W 005°01'0 0.0
2019-Feb-19 12:30N 54°58' W 005°01'5 8.6
2019-Feb-19 11:53N 55°02' W 005°07'820.8
2019-Feb-19 11:30N 54°58' W 005°20'1020.5
2019-Feb-19 11:00N 54°54' W 005°36'714.8
2019-Feb-19 10:30N 54°51' W 005°48'0 0.0
2019-Feb-19 10:00N 54°51' W 005°48'0 0.1
2019-Feb-19 09:30N 54°51' W 005°48'713.0
2019-Feb-19 09:00N 54°54' W 005°38'917.5
2019-Feb-19 08:30N 54°58' W 005°24'918.1
2019-Feb-19 08:00N 55°02' W 005°10'611.8
2019-Feb-19 07:28N 54°58' W 005°01'0 0.0
2019-Feb-19 07:00N 54°58' W 005°01'0 0.0
2019-Feb-19 06:30N 54°58' W 005°01'0 0.1
2019-Feb-19 06:00N 54°58' W 005°01'5 9.6
2019-Feb-19 05:30N 55°02' W 005°06'917.5
2019-Feb-19 05:00N 54°58' W 005°20'1019.2
2019-Feb-19 04:30N 54°54' W 005°36'815.7
2019-Feb-19 04:01N 54°51' W 005°48'0 0.2
2019-Feb-19 03:31N 54°51' W 005°48'0 0.0
2019-Feb-19 03:00N 54°51' W 005°48'0 0.0
2019-Feb-19 02:31N 54°51' W 005°48'0 0.0
2019-Feb-19 02:00N 54°51' W 005°48'5 9.3
2019-Feb-19 01:30N 54°54' W 005°41'816.9
2019-Feb-19 01:00N 54°58' W 005°29'816.3
2019-Feb-19 00:30N 55°03' W 005°18'915.7
2019-Feb-18 23:57N 54°60' W 005°04'2 5.3
2019-Feb-18 23:31N 54°58' W 005°01'0 0.0
2019-Feb-18 23:00N 54°58' W 005°01'0 0.0
2019-Feb-18 22:30N 54°58' W 005°01'0 0.0
2019-Feb-18 22:00N 54°58' W 005°01'6 9.3
2019-Feb-18 21:24N 55°02' W 005°08'819.5
2019-Feb-18 21:01N 54°58' W 005°20'1020.5
2019-Feb-18 20:31N 54°54' W 005°36'714.5
2019-Feb-18 20:00N 54°51' W 005°48'0 0.0
2019-Feb-18 19:30N 54°51' W 005°48'0 0.0
2019-Feb-18 19:00N 54°51' W 005°48'0 0.1
2019-Feb-18 18:30N 54°51' W 005°48'613.1
2019-Feb-18 18:00N 54°54' W 005°38'917.5
2019-Feb-18 17:31N 54°58' W 005°25'917.8
2019-Feb-18 17:00N 55°01' W 005°10'612.9
2019-Feb-18 16:30N 54°58' W 005°01'0 0.0
2019-Feb-18 16:00N 54°58' W 005°01'0 0.0
2019-Feb-18 15:31N 54°58' W 005°01'5 9.4
2019-Feb-18 14:56N 55°02' W 005°08'919.9
2019-Feb-18 14:31N 54°58' W 005°21'1020.2
2019-Feb-18 14:00N 54°54' W 005°37'713.8
2019-Feb-18 13:31N 54°51' W 005°48'0 0.0
2019-Feb-18 12:52N 54°51' W 005°48'0 0.0
2019-Feb-18 12:30N 54°51' W 005°48'5 9.5
2019-Feb-18 12:00N 54°53' W 005°41'918.0
2019-Feb-18 11:30N 54°58' W 005°27'816.9
2019-Feb-18 11:00N 55°01' W 005°14'713.7
2019-Feb-18 10:30N 54°59' W 005°02'1 2.5
2019-Feb-18 10:00N 54°58' W 005°01'0 0.0
2019-Feb-18 09:30N 54°58' W 005°01'611.9
2019-Feb-18 09:00N 55°02' W 005°09'918.1
2019-Feb-18 08:31N 54°58' W 005°23'1018.8
2019-Feb-18 08:00N 54°54' W 005°38'612.9
2019-Feb-18 07:30N 54°51' W 005°48'0 0.0
2019-Feb-18 07:00N 54°51' W 005°48'0 0.0
2019-Feb-18 06:30N 54°51' W 005°48'0 0.0
2019-Feb-18 06:00N 54°51' W 005°48'510.3
2019-Feb-18 05:30N 54°54' W 005°40'917.4
2019-Feb-18 05:00N 54°59' W 005°28'917.1
2019-Feb-18 04:30N 55°01' W 005°14'713.7
2019-Feb-18 04:00N 54°59' W 005°03'2 3.3
2019-Feb-18 03:31N 54°58' W 005°01'0 0.0
2019-Feb-18 03:00N 54°58' W 005°01'0 0.0
2019-Feb-18 02:31N 54°58' W 005°01'0 0.0
2019-Feb-18 02:00N 54°58' W 005°01'5 9.1
2019-Feb-18 01:28N 55°02' W 005°06'920.5
2019-Feb-18 01:01N 54°58' W 005°21'1020.5
2019-Feb-18 00:31N 54°54' W 005°38'713.2
2019-Feb-18 00:01N 54°51' W 005°48'0 0.0
2019-Feb-17 23:31N 54°51' W 005°48'0 0.0
2019-Feb-17 23:00N 54°51' W 005°48'0 0.0
2019-Feb-17 22:30N 54°51' W 005°48'0 0.0
2019-Feb-17 22:00N 54°51' W 005°48'5 9.9
2019-Feb-17 21:30N 54°54' W 005°41'917.3
2019-Feb-17 21:00N 54°57' W 005°27'816.6
2019-Feb-17 20:30N 55°01' W 005°14'714.4
2019-Feb-17 20:00N 54°59' W 005°02'1 2.6
2019-Feb-17 19:31N 54°58' W 005°01'0 0.0
2019-Feb-17 18:54N 54°58' W 005°01'0 0.0
2019-Feb-17 18:30N 54°58' W 005°01'5 8.8
2019-Feb-17 17:55N 55°02' W 005°07'818.8
2019-Feb-17 17:30N 54°58' W 005°19'1020.7
2019-Feb-17 17:01N 54°54' W 005°36'815.4
2019-Feb-17 16:31N 54°51' W 005°48'0 0.1
2019-Feb-17 16:00N 54°51' W 005°48'0 0.0
2019-Feb-17 15:30N 54°51' W 005°48'5 9.4
2019-Feb-17 15:00N 54°53' W 005°41'917.6
2019-Feb-17 14:30N 54°57' W 005°28'917.2
2019-Feb-17 14:01N 55°01' W 005°14'714.3
2019-Feb-17 13:31N 54°59' W 005°02'1 2.1
2019-Feb-17 13:00N 54°58' W 005°01'0 0.0
2019-Feb-17 12:30N 54°58' W 005°01'0 0.0
2019-Feb-17 12:00N 54°58' W 005°01'0 0.0
2019-Feb-17 11:31N 54°58' W 005°01'0 0.0
2019-Feb-17 11:01N 54°58' W 005°01'0 0.0
2019-Feb-17 10:29N 54°58' W 005°01'0 0.0
2019-Feb-17 10:01N 54°58' W 005°01'0 0.0
2019-Feb-17 09:30N 54°58' W 005°01'510.7
2019-Feb-17 09:00N 55°02' W 005°07'917.6
2019-Feb-17 08:31N 54°58' W 005°21'918.0
2019-Feb-17 08:01N 54°54' W 005°35'815.8
2019-Feb-17 07:30N 54°51' W 005°48'0 0.2
2019-Feb-17 07:00N 54°51' W 005°48'0 0.0
2019-Feb-17 06:30N 54°51' W 005°48'0 0.0
2019-Feb-17 06:00N 54°51' W 005°48'0 0.0
2019-Feb-17 05:30N 54°51' W 005°48'0 0.0
2019-Feb-17 05:00N 54°51' W 005°48'0 0.0
2019-Feb-17 04:30N 54°51' W 005°48'0 0.0
2019-Feb-17 04:00N 54°51' W 005°48'0 0.0
2019-Feb-17 03:30N 54°51' W 005°48'0 0.0
2019-Feb-17 03:00N 54°51' W 005°48'0 0.0
2019-Feb-17 02:30N 54°51' W 005°48'0 0.0
2019-Feb-17 02:00N 54°51' W 005°48'0 0.0
2019-Feb-17 01:30N 54°51' W 005°48'0 0.0
2019-Feb-17 01:01N 54°51' W 005°48'0 0.0
2019-Feb-17 00:30N 54°51' W 005°48'0 0.0
2019-Feb-17 00:01N 54°51' W 005°48'0 0.0
2019-Feb-16 23:30N 54°51' W 005°48'0 0.0
2019-Feb-16 23:00N 54°51' W 005°48'0 0.0
2019-Feb-16 22:30N 54°51' W 005°48'0 0.0
2019-Feb-16 22:00N 54°51' W 005°48'3 5.6
2019-Feb-16 21:30N 54°53' W 005°44'918.3
2019-Feb-16 21:00N 54°57' W 005°30'917.5
2019-Feb-16 20:31N 55°00' W 005°16'814.3
2019-Feb-16 19:58N 54°59' W 005°03'2 3.6
2019-Feb-16 19:30N 54°58' W 005°01'0 0.0
2019-Feb-16 19:00N 54°58' W 005°01'0 0.0
2019-Feb-16 18:30N 54°58' W 005°01'5 9.2
2019-Feb-16 17:57N 55°02' W 005°07'716.9
2019-Feb-16 17:30N 54°59' W 005°18'917.9
2019-Feb-16 17:00N 54°55' W 005°33'918.4
2019-Feb-16 16:31N 54°52' W 005°48'1 1.6
2019-Feb-16 16:00N 54°51' W 005°48'0 0.0
2019-Feb-16 15:31N 54°51' W 005°48'611.0
2019-Feb-16 15:01N 54°54' W 005°40'917.8
2019-Feb-16 14:30N 54°58' W 005°26'917.8
2019-Feb-16 14:00N 55°01' W 005°12'714.0
2019-Feb-16 13:31N 54°58' W 005°01'0 0.2
2019-Feb-16 13:00N 54°58' W 005°01'0 0.0
2019-Feb-16 12:30N 54°58' W 005°01'510.1
2019-Feb-16 12:00N 55°02' W 005°07'816.3
2019-Feb-16 11:30N 54°58' W 005°20'917.9
2019-Feb-16 11:00N 54°55' W 005°34'917.1
2019-Feb-16 10:30N 54°51' W 005°48'0 0.9
2019-Feb-16 10:00N 54°51' W 005°48'0 0.0
2019-Feb-16 09:30N 54°51' W 005°48'4 8.4
2019-Feb-16 09:00N 54°53' W 005°42'917.3
2019-Feb-16 08:30N 54°57' W 005°28'917.1
2019-Feb-16 08:00N 55°01' W 005°15'714.4
2019-Feb-16 07:30N 54°59' W 005°03'2 3.2
2019-Feb-16 07:00N 54°58' W 005°01'0 0.0
2019-Feb-16 06:30N 54°58' W 005°01'0 0.0
2019-Feb-16 06:00N 54°58' W 005°01'611.1
2019-Feb-16 05:30N 55°02' W 005°08'815.7
2019-Feb-16 05:00N 54°58' W 005°20'917.3
2019-Feb-16 04:30N 54°55' W 005°34'917.2
2019-Feb-16 04:00N 54°51' W 005°48'0 0.4
2019-Feb-16 03:30N 54°51' W 005°48'0 0.0
2019-Feb-16 03:00N 54°51' W 005°48'0 0.0
2019-Feb-16 02:30N 54°51' W 005°48'0 0.0
2019-Feb-16 02:00N 54°51' W 005°48'4 7.9
2019-Feb-16 01:30N 54°53' W 005°42'816.9
2019-Feb-16 01:00N 54°57' W 005°29'816.6
2019-Feb-16 00:30N 55°00' W 005°16'814.1
2019-Feb-15 23:58N 54°59' W 005°03'2 3.9
2019-Feb-15 23:30N 54°58' W 005°01'0 0.0
2019-Feb-15 23:00N 54°58' W 005°01'0 0.0
2019-Feb-15 22:30N 54°58' W 005°01'0 0.0
2019-Feb-15 22:00N 54°58' W 005°01'510.3
2019-Feb-15 21:30N 55°02' W 005°07'917.9
2019-Feb-15 21:00N 54°58' W 005°21'917.5
2019-Feb-15 20:30N 54°55' W 005°35'815.9
2019-Feb-15 20:00N 54°51' W 005°48'0 0.4
2019-Feb-15 19:30N 54°51' W 005°48'0 0.0
2019-Feb-15 19:00N 54°51' W 005°48'0 0.1
2019-Feb-15 18:30N 54°51' W 005°48'713.8
2019-Feb-15 17:59N 54°55' W 005°37'817.3
2019-Feb-15 17:30N 54°58' W 005°24'917.7
2019-Feb-15 17:00N 55°01' W 005°10'612.6
2019-Feb-15 16:30N 54°58' W 005°01'0 0.0
2019-Feb-15 16:01N 54°58' W 005°01'0 0.1
2019-Feb-15 15:30N 54°58' W 005°01'611.1
2019-Feb-15 15:00N 55°02' W 005°08'917.7
2019-Feb-15 14:30N 54°58' W 005°22'918.6
2019-Feb-15 14:01N 54°54' W 005°37'714.3
2019-Feb-15 13:30N 54°51' W 005°48'0 0.2
2019-Feb-15 13:00N 54°51' W 005°48'0 0.0
2019-Feb-15 12:30N 54°51' W 005°48'510.5
2019-Feb-15 12:00N 54°54' W 005°40'1019.5
2019-Feb-15 11:30N 54°58' W 005°25'917.2
2019-Feb-15 11:00N 55°01' W 005°11'713.7
2019-Feb-15 10:30N 54°58' W 005°01'0 0.0
2019-Feb-15 09:56N 54°58' W 005°01'0 0.0
2019-Feb-15 09:29N 54°58' W 005°01'6 9.6
2019-Feb-15 08:53N 55°02' W 005°08'718.2
2019-Feb-15 08:30N 54°58' W 005°19'917.6
2019-Feb-15 08:00N 54°55' W 005°33'917.7
2019-Feb-15 07:30N 54°52' W 005°47'1 1.9
2019-Feb-15 07:00N 54°51' W 005°48'0 0.0
2019-Feb-15 06:30N 54°51' W 005°48'0 0.0
2019-Feb-15 06:00N 54°51' W 005°48'713.2
2019-Feb-15 05:30N 54°54' W 005°38'917.5
2019-Feb-15 05:00N 54°58' W 005°24'918.2
2019-Feb-15 04:30N 55°02' W 005°10'612.6
2019-Feb-15 04:00N 54°58' W 005°01'0 0.0
2019-Feb-15 03:30N 54°58' W 005°01'0 0.0
2019-Feb-15 03:00N 54°58' W 005°01'0 0.0
2019-Feb-15 02:30N 54°58' W 005°01'0 0.1
2019-Feb-15 02:00N 54°58' W 005°01'510.6
2019-Feb-15 01:30N 55°02' W 005°07'918.1
2019-Feb-15 01:00N 54°59' W 005°23'918.5
2019-Feb-15 00:30N 54°56' W 005°38'815.3
2019-Feb-15 00:01N 54°51' W 005°48'0 0.2
2019-Feb-14 23:30N 54°51' W 005°48'0 0.0
2019-Feb-14 23:00N 54°51' W 005°48'0 0.0
2019-Feb-14 22:31N 54°51' W 005°48'0 0.0
2019-Feb-14 22:01N 54°51' W 005°48'4 8.6
2019-Feb-14 21:30N 54°53' W 005°42'917.4
2019-Feb-14 21:00N 54°56' W 005°27'816.6
2019-Feb-14 20:30N 55°00' W 005°15'714.1
2019-Feb-14 20:00N 54°59' W 005°03'2 3.5
2019-Feb-14 19:30N 54°58' W 005°01'0 0.0
2019-Feb-14 19:00N 54°58' W 005°01'0 0.1
2019-Feb-14 18:30N 54°58' W 005°01'611.8
2019-Feb-14 18:00N 55°02' W 005°09'918.1
2019-Feb-14 17:30N 54°57' W 005°23'918.3
2019-Feb-14 17:00N 54°54' W 005°37'713.7
2019-Feb-14 16:30N 54°51' W 005°48'0 0.1
2019-Feb-14 16:01N 54°51' W 005°48'0 0.0
2019-Feb-14 15:30N 54°51' W 005°48'510.8
2019-Feb-14 15:00N 54°54' W 005°40'917.3
2019-Feb-14 14:31N 54°58' W 005°27'917.4
2019-Feb-14 14:01N 55°01' W 005°12'713.8
2019-Feb-14 13:30N 54°58' W 005°02'0 1.0
2019-Feb-14 13:01N 54°58' W 005°01'0 0.1
2019-Feb-14 12:30N 54°58' W 005°01'611.5
2019-Feb-14 12:00N 55°02' W 005°09'917.8
2019-Feb-14 11:30N 54°58' W 005°22'918.4
2019-Feb-14 11:00N 54°54' W 005°37'713.8
2019-Feb-14 10:30N 54°51' W 005°48'0 0.1
2019-Feb-14 10:01N 54°51' W 005°48'0 0.0
2019-Feb-14 09:30N 54°51' W 005°48'5 9.8
2019-Feb-14 09:00N 54°54' W 005°41'917.5
2019-Feb-14 08:31N 54°58' W 005°28'817.0
2019-Feb-14 08:01N 55°01' W 005°14'714.3
2019-Feb-14 07:31N 54°58' W 005°02'1 1.9
2019-Feb-14 07:00N 54°58' W 005°01'0 0.0
2019-Feb-14 06:30N 54°58' W 005°01'0 0.1
2019-Feb-14 06:00N 54°58' W 005°01'510.8
2019-Feb-14 05:31N 55°02' W 005°07'918.2
2019-Feb-14 05:00N 54°57' W 005°22'918.4
2019-Feb-14 04:30N 54°53' W 005°36'714.6
2019-Feb-14 04:01N 54°51' W 005°48'0 0.1
2019-Feb-14 03:00N 54°51' W 005°48'0 0.0
2019-Feb-14 02:30N 54°51' W 005°48'0 0.1
2019-Feb-14 02:00N 54°51' W 005°48'713.4
2019-Feb-14 01:30N 54°54' W 005°38'817.1
2019-Feb-14 01:01N 54°58' W 005°25'917.1
2019-Feb-14 00:31N 55°01' W 005°11'713.6
2019-Feb-14 00:01N 54°58' W 005°01'0 0.2
2019-Feb-13 23:30N 54°58' W 005°01'0 0.0
2019-Feb-13 23:01N 54°58' W 005°01'0 0.0
2019-Feb-13 22:31N 54°58' W 005°01'0 0.3
2019-Feb-13 22:00N 54°58' W 005°01'611.6
2019-Feb-13 21:30N 55°01' W 005°09'918.4
2019-Feb-13 21:00N 54°57' W 005°23'918.0
2019-Feb-13 20:31N 54°54' W 005°38'713.1
2019-Feb-13 20:00N 54°51' W 005°48'0 0.0
2019-Feb-13 19:30N 54°51' W 005°48'0 0.0
2019-Feb-13 19:00N 54°51' W 005°48'0 0.0
2019-Feb-13 18:30N 54°51' W 005°48'714.0
2019-Feb-13 17:59N 54°55' W 005°37'1020.3
2019-Feb-13 17:30N 54°59' W 005°22'1116.3
2019-Feb-13 16:50N 54°59' W 005°03'  
Track history (hours):
 
Tides and Currents Weather Stations Pressure Air Temp Water Temp Dewpoint Dewpoint Depression Visibility Wind Speed Wind Dir Waves Ship Positions

European Causeway

Operator: P & O Irish Sea

Last reported at 2019-Feb-23 16:31 UTC. Time now 2019-Feb-23 16:42 UTC.
Position N 54°51' W 005°48'.

Length 145 m; draft 5.5 m.

Type: Passenger vessel. MMSI: 311027000.

Date/timePositionNaut miles runAvg speedWind from/ knotsBaromVisibWave heightAir tempDewpointWater temp
2019-Feb-23 16:31N 54°51' W 005°48'0 0.0
2019-Feb-23 16:01N 54°51' W 005°48'0 0.0
2019-Feb-23 15:30N 54°51' W 005°48'5 9.9
2019-Feb-23 15:00N 54°53' W 005°40'917.3
2019-Feb-23 14:31N 54°57' W 005°27'816.5
2019-Feb-23 14:00N 55°01' W 005°14'714.7
2019-Feb-23 13:31N 54°58' W 005°02'1 1.8
2019-Feb-23 13:00N 54°58' W 005°01'0 0.0
2019-Feb-23 12:31N 54°58' W 005°01'5 9.3
2019-Feb-23 11:56N 55°02' W 005°08'717.2
2019-Feb-23 11:30N 54°59' W 005°19'917.8
2019-Feb-23 11:00N 54°55' W 005°33'917.5
2019-Feb-23 10:29N 54°51' W 005°48'0 0.8
2019-Feb-23 10:00N 54°51' W 005°48'0 0.0
2019-Feb-23 09:31N 54°51' W 005°48'510.0
2019-Feb-23 09:01N 54°54' W 005°41'917.2
2019-Feb-23 08:30N 54°57' W 005°27'917.8
2019-Feb-23 08:00N 55°01' W 005°13'714.1
2019-Feb-23 07:31N 54°58' W 005°02'1 1.2
2019-Feb-23 06:56N 54°58' W 005°01'0 0.0
2019-Feb-23 06:31N 54°58' W 005°01'0 0.0
2019-Feb-23 06:01N 54°58' W 005°01'610.5
2019-Feb-23 05:29N 55°01' W 005°08'918.3
2019-Feb-23 05:00N 54°58' W 005°22'917.9
2019-Feb-23 04:30N 54°54' W 005°36'815.1
2019-Feb-23 04:00N 54°51' W 005°48'0 0.1
2019-Feb-23 03:29N 54°51' W 005°48'0 0.0
2019-Feb-23 02:59N 54°51' W 005°48'0 0.0
2019-Feb-23 02:29N 54°51' W 005°48'0 0.0
2019-Feb-23 02:00N 54°51' W 005°48'3 6.9
2019-Feb-23 01:31N 54°53' W 005°43'917.1
2019-Feb-23 01:01N 54°57' W 005°30'917.5
2019-Feb-23 00:30N 55°00' W 005°16'714.6
2019-Feb-23 00:00N 54°59' W 005°03'2 3.7
2019-Feb-22 23:28N 54°58' W 005°01'0 0.0
2019-Feb-22 23:00N 54°58' W 005°01'0 0.0
2019-Feb-22 22:30N 54°58' W 005°01'0 0.1
2019-Feb-22 22:00N 54°58' W 005°01'510.2
2019-Feb-22 21:28N 55°01' W 005°08'817.1
2019-Feb-22 21:00N 54°58' W 005°20'917.9
2019-Feb-22 20:30N 54°54' W 005°35'816.6
2019-Feb-22 20:00N 54°51' W 005°48'0 0.3
2019-Feb-22 19:29N 54°51' W 005°48'0 0.0
2019-Feb-22 19:00N 54°51' W 005°48'0 0.0
2019-Feb-22 18:30N 54°51' W 005°48'3 6.8
2019-Feb-22 18:00N 54°53' W 005°43'1121.7
2019-Feb-22 17:31N 54°58' W 005°26'918.3
2019-Feb-22 17:01N 55°01' W 005°12'714.4
2019-Feb-22 16:30N 54°58' W 005°01'0 0.0
2019-Feb-22 16:00N 54°58' W 005°01'0 0.0
2019-Feb-22 15:31N 54°58' W 005°01'510.9
2019-Feb-22 15:00N 55°02' W 005°08'918.9
2019-Feb-22 14:30N 54°58' W 005°23'918.1
2019-Feb-22 14:01N 54°54' W 005°37'713.7
2019-Feb-22 13:31N 54°51' W 005°48'0 0.1
2019-Feb-22 13:00N 54°51' W 005°48'0 0.0
2019-Feb-22 12:30N 54°51' W 005°48'510.7
2019-Feb-22 12:00N 54°54' W 005°40'917.2
2019-Feb-22 11:30N 54°58' W 005°27'917.5
2019-Feb-22 11:00N 55°01' W 005°13'713.3
2019-Feb-22 10:30N 54°58' W 005°02'1 1.5
2019-Feb-22 10:00N 54°58' W 005°01'0 0.0
2019-Feb-22 09:30N 54°58' W 005°01'5 9.6
2019-Feb-22 08:56N 55°02' W 005°08'716.7
2019-Feb-22 08:30N 54°58' W 005°19'918.2
2019-Feb-22 08:00N 54°55' W 005°34'917.4
2019-Feb-22 07:29N 54°51' W 005°48'0 0.4
2019-Feb-22 06:58N 54°51' W 005°48'0 0.0
2019-Feb-22 06:25N 54°51' W 005°48'0 0.0
2019-Feb-22 06:00N 54°51' W 005°48'511.0
2019-Feb-22 05:30N 54°54' W 005°40'816.7
2019-Feb-22 05:00N 54°58' W 005°27'816.8
2019-Feb-22 04:30N 55°01' W 005°13'714.7
2019-Feb-22 04:00N 54°58' W 005°02'1 1.1
2019-Feb-22 03:30N 54°58' W 005°01'0 0.0
2019-Feb-22 02:54N 54°58' W 005°01'0 0.0
2019-Feb-22 02:30N 54°58' W 005°01'0 0.0
2019-Feb-22 02:00N 54°58' W 005°01'610.5
2019-Feb-22 01:27N 55°02' W 005°08'818.4
2019-Feb-22 01:00N 54°57' W 005°21'917.3
2019-Feb-22 00:31N 54°54' W 005°35'813.9
2019-Feb-21 23:55N 54°51' W 005°48'0 0.0
2019-Feb-21 23:19N 54°51' W 005°48'0 0.0
2019-Feb-21 22:58N 54°51' W 005°48'0 0.0
2019-Feb-21 22:25N 54°51' W 005°48'0 0.0
2019-Feb-21 22:00N 54°51' W 005°48'4 7.6
2019-Feb-21 21:30N 54°53' W 005°42'918.0
2019-Feb-21 21:01N 54°57' W 005°29'918.4
2019-Feb-21 20:30N 55°01' W 005°14'714.0
2019-Feb-21 20:00N 54°59' W 005°03'1 2.4
2019-Feb-21 19:24N 54°58' W 005°01'0 0.0
2019-Feb-21 19:00N 54°58' W 005°01'0 0.1
2019-Feb-21 18:30N 54°58' W 005°01'510.8
2019-Feb-21 18:00N 55°01' W 005°08'917.8
2019-Feb-21 17:31N 54°58' W 005°22'917.9
2019-Feb-21 17:01N 54°54' W 005°36'815.1
2019-Feb-21 16:31N 54°51' W 005°48'0 0.2
2019-Feb-21 15:52N 54°51' W 005°48'0 0.0
2019-Feb-21 15:28N 54°51' W 005°48'4 8.2
2019-Feb-21 15:00N 54°53' W 005°42'917.8
2019-Feb-21 14:30N 54°57' W 005°29'816.9
2019-Feb-21 14:00N 55°01' W 005°16'714.0
2019-Feb-21 13:29N 54°59' W 005°03'2 4.1
2019-Feb-21 13:01N 54°58' W 005°01'0 0.0
2019-Feb-21 12:30N 54°58' W 005°01'6 9.9
2019-Feb-21 11:55N 55°01' W 005°08'718.1
2019-Feb-21 11:30N 54°58' W 005°20'918.0
2019-Feb-21 11:00N 54°55' W 005°35'816.9
2019-Feb-21 10:30N 54°51' W 005°48'0 0.4
2019-Feb-21 10:00N 54°51' W 005°48'0 0.1
2019-Feb-21 09:31N 54°51' W 005°48'5 9.3
2019-Feb-21 09:00N 54°54' W 005°41'918.1
2019-Feb-21 08:31N 54°57' W 005°27'918.7
2019-Feb-21 08:00N 55°01' W 005°12'714.3
2019-Feb-21 07:30N 54°58' W 005°01'0 0.7
2019-Feb-21 07:00N 54°58' W 005°01'0 0.0
2019-Feb-21 06:30N 54°58' W 005°01'0 0.4
2019-Feb-21 06:00N 54°58' W 005°01'511.1
2019-Feb-21 05:31N 55°01' W 005°08'918.1
2019-Feb-21 05:00N 54°58' W 005°23'918.3
2019-Feb-21 04:31N 54°54' W 005°37'713.7
2019-Feb-21 04:00N 54°51' W 005°48'0 0.1
2019-Feb-21 03:30N 54°51' W 005°48'0 0.0
2019-Feb-21 03:00N 54°51' W 005°48'0 0.0
2019-Feb-21 02:30N 54°51' W 005°48'0 0.0
2019-Feb-21 02:00N 54°51' W 005°48'4 7.8
2019-Feb-21 01:30N 54°53' W 005°42'918.0
2019-Feb-21 01:00N 54°57' W 005°28'817.0
2019-Feb-21 00:30N 55°01' W 005°15'714.2
2019-Feb-21 00:01N 54°59' W 005°03'2 3.4
2019-Feb-20 23:30N 54°58' W 005°01'0 0.0
2019-Feb-20 23:00N 54°58' W 005°01'0 0.0
2019-Feb-20 22:30N 54°58' W 005°01'0 0.1
2019-Feb-20 22:01N 54°58' W 005°01'611.6
2019-Feb-20 21:30N 55°02' W 005°09'917.4
2019-Feb-20 21:01N 54°58' W 005°22'919.0
2019-Feb-20 20:30N 54°54' W 005°37'713.3
2019-Feb-20 20:00N 54°51' W 005°48'0 0.0
2019-Feb-20 19:29N 54°51' W 005°48'0 0.0
2019-Feb-20 18:59N 54°51' W 005°48'0 0.0
2019-Feb-20 18:31N 54°51' W 005°48'611.6
2019-Feb-20 17:59N 54°54' W 005°39'817.9
2019-Feb-20 17:30N 54°58' W 005°26'917.7
2019-Feb-20 17:00N 55°01' W 005°11'713.9
2019-Feb-20 16:31N 54°58' W 005°01'0 0.0
2019-Feb-20 15:58N 54°58' W 005°01'0 0.0
2019-Feb-20 15:30N 54°58' W 005°01'610.6
2019-Feb-20 14:57N 55°02' W 005°09'919.9
2019-Feb-20 14:31N 54°57' W 005°22'1019.2
2019-Feb-20 14:00N 54°54' W 005°38'713.1
2019-Feb-20 13:30N 54°51' W 005°48'0 0.0
2019-Feb-20 13:00N 54°51' W 005°48'0 0.0
2019-Feb-20 12:30N 54°51' W 005°48'510.6
2019-Feb-20 12:01N 54°54' W 005°40'917.6
2019-Feb-20 11:30N 54°58' W 005°26'917.0
2019-Feb-20 11:00N 55°01' W 005°13'713.5
2019-Feb-20 10:30N 54°58' W 005°02'1 1.3
2019-Feb-20 09:46N 54°58' W 005°01'0 0.1
2019-Feb-20 09:26N 54°58' W 005°01'512.3
2019-Feb-20 09:00N 55°02' W 005°07'816.8
2019-Feb-20 08:31N 54°58' W 005°20'918.5
2019-Feb-20 08:01N 54°55' W 005°35'814.9
2019-Feb-20 07:28N 54°51' W 005°48'0 0.1
2019-Feb-20 06:55N 54°51' W 005°48'0 0.0
2019-Feb-20 06:28N 54°51' W 005°48'0 0.0
2019-Feb-20 06:00N 54°51' W 005°48'4 8.3
2019-Feb-20 05:31N 54°53' W 005°42'1019.6
2019-Feb-20 05:01N 54°58' W 005°27'1019.7
2019-Feb-20 04:31N 55°02' W 005°11'713.8
2019-Feb-20 04:00N 54°58' W 005°01'0 0.0
2019-Feb-20 03:01N 54°58' W 005°01'0 0.0
2019-Feb-20 02:30N 54°58' W 005°01'0 0.2
2019-Feb-20 02:01N 54°58' W 005°01'712.9
2019-Feb-20 01:30N 55°02' W 005°10'1019.6
2019-Feb-20 01:00N 54°58' W 005°24'1019.2
2019-Feb-20 00:31N 54°55' W 005°40'611.9
2019-Feb-20 00:00N 54°51' W 005°48'0 0.0
2019-Feb-19 23:30N 54°51' W 005°48'0 0.0
2019-Feb-19 23:01N 54°51' W 005°48'0 0.0
2019-Feb-19 22:31N 54°51' W 005°48'0 0.0
2019-Feb-19 22:00N 54°51' W 005°48'511.0
2019-Feb-19 21:31N 54°54' W 005°40'917.4
2019-Feb-19 21:01N 54°58' W 005°26'917.7
2019-Feb-19 20:30N 55°01' W 005°12'713.9
2019-Feb-19 20:01N 54°58' W 005°01'0 0.6
2019-Feb-19 19:31N 54°58' W 005°01'0 0.0
2019-Feb-19 19:01N 54°58' W 005°01'0 0.2
2019-Feb-19 18:30N 54°58' W 005°01'613.0
2019-Feb-19 18:00N 55°01' W 005°11'1020.1
2019-Feb-19 17:30N 54°57' W 005°26'1121.2
2019-Feb-19 17:00N 54°53' W 005°43'3 6.2
2019-Feb-19 16:31N 54°51' W 005°48'0 0.1
2019-Feb-19 16:00N 54°51' W 005°48'0 0.0
2019-Feb-19 15:28N 54°51' W 005°48'3 7.0
2019-Feb-19 15:00N 54°53' W 005°44'917.8
2019-Feb-19 14:31N 54°57' W 005°30'917.1
2019-Feb-19 14:01N 55°00' W 005°16'714.1
2019-Feb-19 13:30N 54°60' W 005°04'2 4.8
2019-Feb-19 13:00N 54°58' W 005°01'0 0.0
2019-Feb-19 12:30N 54°58' W 005°01'5 8.6
2019-Feb-19 11:53N 55°02' W 005°07'820.8
2019-Feb-19 11:30N 54°58' W 005°20'1020.5
2019-Feb-19 11:00N 54°54' W 005°36'714.8
2019-Feb-19 10:30N 54°51' W 005°48'0 0.0
2019-Feb-19 10:00N 54°51' W 005°48'0 0.1
2019-Feb-19 09:30N 54°51' W 005°48'713.0
2019-Feb-19 09:00N 54°54' W 005°38'917.5
2019-Feb-19 08:30N 54°58' W 005°24'918.1
2019-Feb-19 08:00N 55°02' W 005°10'611.8
2019-Feb-19 07:28N 54°58' W 005°01'0 0.0
2019-Feb-19 07:00N 54°58' W 005°01'0 0.0
2019-Feb-19 06:30N 54°58' W 005°01'0 0.1
2019-Feb-19 06:00N 54°58' W 005°01'5 9.6
2019-Feb-19 05:30N 55°02' W 005°06'917.5
2019-Feb-19 05:00N 54°58' W 005°20'1019.2
2019-Feb-19 04:30N 54°54' W 005°36'815.7
2019-Feb-19 04:01N 54°51' W 005°48'0 0.2
2019-Feb-19 03:31N 54°51' W 005°48'0 0.0
2019-Feb-19 03:00N 54°51' W 005°48'0 0.0
2019-Feb-19 02:31N 54°51' W 005°48'0 0.0
2019-Feb-19 02:00N 54°51' W 005°48'5 9.3
2019-Feb-19 01:30N 54°54' W 005°41'816.9
2019-Feb-19 01:00N 54°58' W 005°29'816.3
2019-Feb-19 00:30N 55°03' W 005°18'915.7
2019-Feb-18 23:57N 54°60' W 005°04'2 5.3
2019-Feb-18 23:31N 54°58' W 005°01'0 0.0
2019-Feb-18 23:00N 54°58' W 005°01'0 0.0
2019-Feb-18 22:30N 54°58' W 005°01'0 0.0
2019-Feb-18 22:00N 54°58' W 005°01'6 9.3
2019-Feb-18 21:24N 55°02' W 005°08'819.5
2019-Feb-18 21:01N 54°58' W 005°20'1020.5
2019-Feb-18 20:31N 54°54' W 005°36'714.5
2019-Feb-18 20:00N 54°51' W 005°48'0 0.0
2019-Feb-18 19:30N 54°51' W 005°48'0 0.0
2019-Feb-18 19:00N 54°51' W 005°48'0 0.1
2019-Feb-18 18:30N 54°51' W 005°48'613.1
2019-Feb-18 18:00N 54°54' W 005°38'917.5
2019-Feb-18 17:31N 54°58' W 005°25'917.8
2019-Feb-18 17:00N 55°01' W 005°10'612.9
2019-Feb-18 16:30N 54°58' W 005°01'0 0.0
2019-Feb-18 16:00N 54°58' W 005°01'0 0.0
2019-Feb-18 15:31N 54°58' W 005°01'5 9.4
2019-Feb-18 14:56N 55°02' W 005°08'919.9
2019-Feb-18 14:31N 54°58' W 005°21'1020.2
2019-Feb-18 14:00N 54°54' W 005°37'713.8
2019-Feb-18 13:31N 54°51' W 005°48'0 0.0
2019-Feb-18 12:52N 54°51' W 005°48'0 0.0
2019-Feb-18 12:30N 54°51' W 005°48'5 9.5
2019-Feb-18 12:00N 54°53' W 005°41'918.0
2019-Feb-18 11:30N 54°58' W 005°27'816.9
2019-Feb-18 11:00N 55°01' W 005°14'713.7
2019-Feb-18 10:30N 54°59' W 005°02'1 2.5
2019-Feb-18 10:00N 54°58' W 005°01'0 0.0
2019-Feb-18 09:30N 54°58' W 005°01'611.9
2019-Feb-18 09:00N 55°02' W 005°09'918.1
2019-Feb-18 08:31N 54°58' W 005°23'1018.8
2019-Feb-18 08:00N 54°54' W 005°38'612.9
2019-Feb-18 07:30N 54°51' W 005°48'0 0.0
2019-Feb-18 07:00N 54°51' W 005°48'0 0.0
2019-Feb-18 06:30N 54°51' W 005°48'0 0.0
2019-Feb-18 06:00N 54°51' W 005°48'510.3
2019-Feb-18 05:30N 54°54' W 005°40'917.4
2019-Feb-18 05:00N 54°59' W 005°28'917.1
2019-Feb-18 04:30N 55°01' W 005°14'713.7
2019-Feb-18 04:00N 54°59' W 005°03'2 3.3
2019-Feb-18 03:31N 54°58' W 005°01'0 0.0
2019-Feb-18 03:00N 54°58' W 005°01'0 0.0
2019-Feb-18 02:31N 54°58' W 005°01'0 0.0
2019-Feb-18 02:00N 54°58' W 005°01'5 9.1
2019-Feb-18 01:28N 55°02' W 005°06'920.5
2019-Feb-18 01:01N 54°58' W 005°21'1020.5
2019-Feb-18 00:31N 54°54' W 005°38'713.2
2019-Feb-18 00:01N 54°51' W 005°48'0 0.0
2019-Feb-17 23:31N 54°51' W 005°48'0 0.0
2019-Feb-17 23:00N 54°51' W 005°48'0 0.0
2019-Feb-17 22:30N 54°51' W 005°48'0 0.0
2019-Feb-17 22:00N 54°51' W 005°48'5 9.9
2019-Feb-17 21:30N 54°54' W 005°41'917.3
2019-Feb-17 21:00N 54°57' W 005°27'816.6
2019-Feb-17 20:30N 55°01' W 005°14'714.4
2019-Feb-17 20:00N 54°59' W 005°02'1 2.6
2019-Feb-17 19:31N 54°58' W 005°01'0 0.0
2019-Feb-17 18:54N 54°58' W 005°01'0 0.0
2019-Feb-17 18:30N 54°58' W 005°01'5 8.8
2019-Feb-17 17:55N 55°02' W 005°07'818.8
2019-Feb-17 17:30N 54°58' W 005°19'1020.7
2019-Feb-17 17:01N 54°54' W 005°36'815.4
2019-Feb-17 16:31N 54°51' W 005°48'0 0.1
2019-Feb-17 16:00N 54°51' W 005°48'0 0.0
2019-Feb-17 15:30N 54°51' W 005°48'5 9.4
2019-Feb-17 15:00N 54°53' W 005°41'917.6
2019-Feb-17 14:30N 54°57' W 005°28'917.2
2019-Feb-17 14:01N 55°01' W 005°14'714.3
2019-Feb-17 13:31N 54°59' W 005°02'1 2.1
2019-Feb-17 13:00N 54°58' W 005°01'0 0.0
2019-Feb-17 12:30N 54°58' W 005°01'0 0.0
2019-Feb-17 12:00N 54°58' W 005°01'0 0.0
2019-Feb-17 11:31N 54°58' W 005°01'0 0.0
2019-Feb-17 11:01N 54°58' W 005°01'0 0.0
2019-Feb-17 10:29N 54°58' W 005°01'0 0.0
2019-Feb-17 10:01N 54°58' W 005°01'0 0.0
2019-Feb-17 09:30N 54°58' W 005°01'510.7
2019-Feb-17 09:00N 55°02' W 005°07'917.6
2019-Feb-17 08:31N 54°58' W 005°21'918.0
2019-Feb-17 08:01N 54°54' W 005°35'815.8
2019-Feb-17 07:30N 54°51' W 005°48'0 0.2
2019-Feb-17 07:00N 54°51' W 005°48'0 0.0
2019-Feb-17 06:30N 54°51' W 005°48'0 0.0
2019-Feb-17 06:00N 54°51' W 005°48'0 0.0
2019-Feb-17 05:30N 54°51' W 005°48'0 0.0
2019-Feb-17 05:00N 54°51' W 005°48'0 0.0
2019-Feb-17 04:30N 54°51' W 005°48'0 0.0
2019-Feb-17 04:00N 54°51' W 005°48'0 0.0
2019-Feb-17 03:30N 54°51' W 005°48'0 0.0
2019-Feb-17 03:00N 54°51' W 005°48'0 0.0
2019-Feb-17 02:30N 54°51' W 005°48'0 0.0
2019-Feb-17 02:00N 54°51' W 005°48'0 0.0
2019-Feb-17 01:30N 54°51' W 005°48'0 0.0
2019-Feb-17 01:01N 54°51' W 005°48'0 0.0
2019-Feb-17 00:30N 54°51' W 005°48'0 0.0
2019-Feb-17 00:01N 54°51' W 005°48'0 0.0
2019-Feb-16 23:30N 54°51' W 005°48'0 0.0
2019-Feb-16 23:00N 54°51' W 005°48'0 0.0
2019-Feb-16 22:30N 54°51' W 005°48'0 0.0
2019-Feb-16 22:00N 54°51' W 005°48'3 5.6
2019-Feb-16 21:30N 54°53' W 005°44'918.3
2019-Feb-16 21:00N 54°57' W 005°30'917.5
2019-Feb-16 20:31N 55°00' W 005°16'814.3
2019-Feb-16 19:58N 54°59' W 005°03'2 3.6
2019-Feb-16 19:30N 54°58' W 005°01'0 0.0
2019-Feb-16 19:00N 54°58' W 005°01'0 0.0
2019-Feb-16 18:30N 54°58' W 005°01'5 9.2
2019-Feb-16 17:57N 55°02' W 005°07'716.9
2019-Feb-16 17:30N 54°59' W 005°18'917.9
2019-Feb-16 17:00N 54°55' W 005°33'918.4
2019-Feb-16 16:31N 54°52' W 005°48'1 1.6
2019-Feb-16 16:00N 54°51' W 005°48'0 0.0
2019-Feb-16 15:31N 54°51' W 005°48'611.0
2019-Feb-16 15:01N 54°54' W 005°40'917.8
2019-Feb-16 14:30N 54°58' W 005°26'917.8
2019-Feb-16 14:00N 55°01' W 005°12'714.0
2019-Feb-16 13:31N 54°58' W 005°01'0 0.2
2019-Feb-16 13:00N 54°58' W 005°01'0 0.0
2019-Feb-16 12:30N 54°58' W 005°01'510.1
2019-Feb-16 12:00N 55°02' W 005°07'816.3
2019-Feb-16 11:30N 54°58' W 005°20'917.9
2019-Feb-16 11:00N 54°55' W 005°34'917.1
2019-Feb-16 10:30N 54°51' W 005°48'0 0.9
2019-Feb-16 10:00N 54°51' W 005°48'0 0.0
2019-Feb-16 09:30N 54°51' W 005°48'4 8.4
2019-Feb-16 09:00N 54°53' W 005°42'917.3
2019-Feb-16 08:30N 54°57' W 005°28'917.1
2019-Feb-16 08:00N 55°01' W 005°15'714.4
2019-Feb-16 07:30N 54°59' W 005°03'2 3.2
2019-Feb-16 07:00N 54°58' W 005°01'0 0.0
2019-Feb-16 06:30N 54°58' W 005°01'0 0.0
2019-Feb-16 06:00N 54°58' W 005°01'611.1
2019-Feb-16 05:30N 55°02' W 005°08'815.7
2019-Feb-16 05:00N 54°58' W 005°20'917.3
2019-Feb-16 04:30N 54°55' W 005°34'917.2
2019-Feb-16 04:00N 54°51' W 005°48'0 0.4
2019-Feb-16 03:30N 54°51' W 005°48'0 0.0
2019-Feb-16 03:00N 54°51' W 005°48'0 0.0
2019-Feb-16 02:30N 54°51' W 005°48'0 0.0
2019-Feb-16 02:00N 54°51' W 005°48'4 7.9
2019-Feb-16 01:30N 54°53' W 005°42'816.9
2019-Feb-16 01:00N 54°57' W 005°29'816.6
2019-Feb-16 00:30N 55°00' W 005°16'814.1
2019-Feb-15 23:58N 54°59' W 005°03'2 3.9
2019-Feb-15 23:30N 54°58' W 005°01'0 0.0
2019-Feb-15 23:00N 54°58' W 005°01'0 0.0
2019-Feb-15 22:30N 54°58' W 005°01'0 0.0
2019-Feb-15 22:00N 54°58' W 005°01'510.3
2019-Feb-15 21:30N 55°02' W 005°07'917.9
2019-Feb-15 21:00N 54°58' W 005°21'917.5
2019-Feb-15 20:30N 54°55' W 005°35'815.9
2019-Feb-15 20:00N 54°51' W 005°48'0 0.4
2019-Feb-15 19:30N 54°51' W 005°48'0 0.0
2019-Feb-15 19:00N 54°51' W 005°48'0 0.1
2019-Feb-15 18:30N 54°51' W 005°48'713.8
2019-Feb-15 17:59N 54°55' W 005°37'817.3
2019-Feb-15 17:30N 54°58' W 005°24'917.7
2019-Feb-15 17:00N 55°01' W 005°10'612.6
2019-Feb-15 16:30N 54°58' W 005°01'0 0.0
2019-Feb-15 16:01N 54°58' W 005°01'0 0.1
2019-Feb-15 15:30N 54°58' W 005°01'611.1
2019-Feb-15 15:00N 55°02' W 005°08'917.7
2019-Feb-15 14:30N 54°58' W 005°22'918.6
2019-Feb-15 14:01N 54°54' W 005°37'714.3
2019-Feb-15 13:30N 54°51' W 005°48'0 0.2
2019-Feb-15 13:00N 54°51' W 005°48'0 0.0
2019-Feb-15 12:30N 54°51' W 005°48'510.5
2019-Feb-15 12:00N 54°54' W 005°40'1019.5
2019-Feb-15 11:30N 54°58' W 005°25'917.2
2019-Feb-15 11:00N 55°01' W 005°11'713.7
2019-Feb-15 10:30N 54°58' W 005°01'0 0.0
2019-Feb-15 09:56N 54°58' W 005°01'0 0.0
2019-Feb-15 09:29N 54°58' W 005°01'6 9.6
2019-Feb-15 08:53N 55°02' W 005°08'718.2
2019-Feb-15 08:30N 54°58' W 005°19'917.6
2019-Feb-15 08:00N 54°55' W 005°33'917.7
2019-Feb-15 07:30N 54°52' W 005°47'1 1.9
2019-Feb-15 07:00N 54°51' W 005°48'0 0.0
2019-Feb-15 06:30N 54°51' W 005°48'0 0.0
2019-Feb-15 06:00N 54°51' W 005°48'713.2
2019-Feb-15 05:30N 54°54' W 005°38'917.5
2019-Feb-15 05:00N 54°58' W 005°24'918.2
2019-Feb-15 04:30N 55°02' W 005°10'612.6
2019-Feb-15 04:00N 54°58' W 005°01'0 0.0
2019-Feb-15 03:30N 54°58' W 005°01'0 0.0
2019-Feb-15 03:00N 54°58' W 005°01'0 0.0
2019-Feb-15 02:30N 54°58' W 005°01'0 0.1
2019-Feb-15 02:00N 54°58' W 005°01'510.6
2019-Feb-15 01:30N 55°02' W 005°07'918.1
2019-Feb-15 01:00N 54°59' W 005°23'918.5
2019-Feb-15 00:30N 54°56' W 005°38'815.3
2019-Feb-15 00:01N 54°51' W 005°48'0 0.2
2019-Feb-14 23:30N 54°51' W 005°48'0 0.0
2019-Feb-14 23:00N 54°51' W 005°48'0 0.0
2019-Feb-14 22:31N 54°51' W 005°48'0 0.0
2019-Feb-14 22:01N 54°51' W 005°48'4 8.6
2019-Feb-14 21:30N 54°53' W 005°42'917.4
2019-Feb-14 21:00N 54°56' W 005°27'816.6
2019-Feb-14 20:30N 55°00' W 005°15'714.1
2019-Feb-14 20:00N 54°59' W 005°03'2 3.5
2019-Feb-14 19:30N 54°58' W 005°01'0 0.0
2019-Feb-14 19:00N 54°58' W 005°01'0 0.1
2019-Feb-14 18:30N 54°58' W 005°01'611.8
2019-Feb-14 18:00N 55°02' W 005°09'918.1
2019-Feb-14 17:30N 54°57' W 005°23'918.3
2019-Feb-14 17:00N 54°54' W 005°37'713.7
2019-Feb-14 16:30N 54°51' W 005°48'0 0.1
2019-Feb-14 16:01N 54°51' W 005°48'0 0.0
2019-Feb-14 15:30N 54°51' W 005°48'510.8
2019-Feb-14 15:00N 54°54' W 005°40'917.3
2019-Feb-14 14:31N 54°58' W 005°27'917.4
2019-Feb-14 14:01N 55°01' W 005°12'713.8
2019-Feb-14 13:30N 54°58' W 005°02'0 1.0
2019-Feb-14 13:01N 54°58' W 005°01'0 0.1
2019-Feb-14 12:30N 54°58' W 005°01'611.5
2019-Feb-14 12:00N 55°02' W 005°09'917.8
2019-Feb-14 11:30N 54°58' W 005°22'918.4
2019-Feb-14 11:00N 54°54' W 005°37'713.8
2019-Feb-14 10:30N 54°51' W 005°48'0 0.1
2019-Feb-14 10:01N 54°51' W 005°48'0 0.0
2019-Feb-14 09:30N 54°51' W 005°48'5 9.8
2019-Feb-14 09:00N 54°54' W 005°41'917.5
2019-Feb-14 08:31N 54°58' W 005°28'817.0
2019-Feb-14 08:01N 55°01' W 005°14'714.3
2019-Feb-14 07:31N 54°58' W 005°02'1 1.9
2019-Feb-14 07:00N 54°58' W 005°01'0 0.0
2019-Feb-14 06:30N 54°58' W 005°01'0 0.1
2019-Feb-14 06:00N 54°58' W 005°01'510.8
2019-Feb-14 05:31N 55°02' W 005°07'918.2
2019-Feb-14 05:00N 54°57' W 005°22'918.4
2019-Feb-14 04:30N 54°53' W 005°36'714.6
2019-Feb-14 04:01N 54°51' W 005°48'0 0.1
2019-Feb-14 03:00N 54°51' W 005°48'0 0.0
2019-Feb-14 02:30N 54°51' W 005°48'0 0.1
2019-Feb-14 02:00N 54°51' W 005°48'713.4
2019-Feb-14 01:30N 54°54' W 005°38'817.1
2019-Feb-14 01:01N 54°58' W 005°25'917.1
2019-Feb-14 00:31N 55°01' W 005°11'713.6
2019-Feb-14 00:01N 54°58' W 005°01'0 0.2
2019-Feb-13 23:30N 54°58' W 005°01'0 0.0
2019-Feb-13 23:01N 54°58' W 005°01'0 0.0
2019-Feb-13 22:31N 54°58' W 005°01'0 0.3
2019-Feb-13 22:00N 54°58' W 005°01'611.6
2019-Feb-13 21:30N 55°01' W 005°09'918.4
2019-Feb-13 21:00N 54°57' W 005°23'918.0
2019-Feb-13 20:31N 54°54' W 005°38'713.1
2019-Feb-13 20:00N 54°51' W 005°48'0 0.0
2019-Feb-13 19:30N 54°51' W 005°48'0 0.0
2019-Feb-13 19:00N 54°51' W 005°48'0 0.0
2019-Feb-13 18:30N 54°51' W 005°48'714.0
2019-Feb-13 17:59N 54°55' W 005°37'1020.3
2019-Feb-13 17:30N 54°59' W 005°22'1116.3
2019-Feb-13 16:50N 54°59' W 005°03'  

Dump ship's entire track history